createdAt,value
2022-10-20T00:00:55.139Z,6.9
2022-10-20T00:01:57.018Z,6.8
2022-10-20T00:02:59.062Z,6.8
2022-10-20T00:04:01.137Z,6.8
2022-10-20T00:05:03.078Z,6.8
2022-10-20T00:06:04.978Z,6.8
2022-10-20T00:07:07.059Z,6.8
2022-10-20T00:08:09.077Z,6.8
2022-10-20T00:09:11.142Z,6.8
2022-10-20T00:10:12.052Z,6.7
2022-10-20T00:11:13.085Z,6.7
2022-10-20T00:12:14.066Z,6.7
2022-10-20T00:13:15.078Z,6.7
2022-10-20T00:14:16.038Z,6.7
2022-10-20T00:15:17.125Z,6.7
2022-10-20T00:16:19.038Z,6.7
2022-10-20T00:17:21.037Z,6.6
2022-10-20T00:18:23.007Z,6.6
2022-10-20T00:19:25.018Z,6.6
2022-10-20T00:20:27.058Z,6.5
2022-10-20T00:21:28.080Z,6.5
2022-10-20T00:22:29.038Z,6.5
2022-10-20T00:23:30.110Z,6.5
2022-10-20T00:24:31.086Z,6.5
2022-10-20T00:25:32.058Z,6.5
2022-10-20T00:26:33.064Z,6.5
2022-10-20T00:27:35.158Z,6.4
2022-10-20T00:28:37.057Z,6.4
2022-10-20T00:29:39.037Z,6.4
2022-10-20T00:30:41.047Z,6.3
2022-10-20T00:31:43.037Z,6.3
2022-10-20T00:32:45.121Z,6.3
2022-10-20T00:33:47.010Z,6.3
2022-10-20T00:34:48.067Z,6.3
2022-10-20T00:35:49.059Z,6.2
2022-10-20T00:36:51.107Z,6.2
2022-10-20T00:37:52.060Z,6.2
2022-10-20T00:38:54.117Z,6.2
2022-10-20T00:39:56.030Z,6.2
2022-10-20T00:40:58.186Z,6.1
2022-10-20T00:42:00.161Z,6
2022-10-20T00:43:02.031Z,5.9
2022-10-20T00:44:04.038Z,5.8
2022-10-20T00:45:06.158Z,5.8
2022-10-20T00:46:08.078Z,5.8
2022-10-20T00:47:10.058Z,5.8
2022-10-20T00:48:12.038Z,5.9
2022-10-20T00:49:14.058Z,5.9
2022-10-20T00:50:16.106Z,5.9
2022-10-20T00:51:18.077Z,5.9
2022-10-20T00:52:20.097Z,5.9
2022-10-20T00:53:22.058Z,5.8
2022-10-20T00:54:23.039Z,5.8
2022-10-20T00:55:24.017Z,5.8
2022-10-20T00:56:25.079Z,5.8
2022-10-20T00:57:26.083Z,5.8
2022-10-20T00:58:27.098Z,5.8
2022-10-20T00:59:28.077Z,5.7
2022-10-20T01:00:29.040Z,5.7
2022-10-20T01:01:30.067Z,5.6
2022-10-20T01:02:31.058Z,5.5
2022-10-20T01:03:32.081Z,5.4
2022-10-20T01:04:34.019Z,5.4
2022-10-20T01:05:35.018Z,5.3
2022-10-20T01:06:37.060Z,5.3
2022-10-20T01:07:39.331Z,5.2
2022-10-20T01:08:41.046Z,5.1
2022-10-20T01:09:43.037Z,5.1
2022-10-20T01:10:45.077Z,5.1
2022-10-20T01:11:46.080Z,5.1
2022-10-20T01:12:47.065Z,5.2
2022-10-20T01:13:48.037Z,5.2
2022-10-20T01:14:49.098Z,5.2
2022-10-20T01:15:50.021Z,5.3
2022-10-20T01:16:52.057Z,5.4
2022-10-20T01:17:54.077Z,5.4
2022-10-20T01:18:56.098Z,5.4
2022-10-20T01:19:58.117Z,5.5
2022-10-20T01:21:00.097Z,5.5
2022-10-20T01:22:02.057Z,5.6
2022-10-20T01:23:04.045Z,5.6
2022-10-20T01:24:06.097Z,5.6
2022-10-20T01:25:08.120Z,5.6
2022-10-20T01:26:10.137Z,5.6
2022-10-20T01:27:12.077Z,5.6
2022-10-20T01:28:14.142Z,5.5
2022-10-20T01:29:16.099Z,5.5
2022-10-20T01:30:18.120Z,5.5
2022-10-20T01:31:20.065Z,5.5
2022-10-20T01:32:22.062Z,5.4
2022-10-20T01:33:24.143Z,5.4
2022-10-20T01:34:26.058Z,5.4
2022-10-20T01:35:28.139Z,5.3
2022-10-20T01:36:30.062Z,5.3
2022-10-20T01:37:48.295Z,5.3
2022-10-20T01:38:34.137Z,5.3
2022-10-20T01:39:36.107Z,5.4
2022-10-20T01:40:38.097Z,5.4
2022-10-20T01:41:40.257Z,5.4
2022-10-20T01:42:42.083Z,5.5
2022-10-20T01:43:44.107Z,5.5
2022-10-20T01:44:46.083Z,5.5
2022-10-20T01:45:48.081Z,5.5
2022-10-20T01:46:50.097Z,5.5
2022-10-20T01:47:52.065Z,5.5
2022-10-20T01:48:54.099Z,5.5
2022-10-20T01:49:56.131Z,5.5
2022-10-20T01:50:58.061Z,5.4
2022-10-20T01:52:00.138Z,5.4
2022-10-20T01:53:02.097Z,5.4
2022-10-20T01:54:04.097Z,5.3
2022-10-20T01:55:06.098Z,5.3
2022-10-20T01:56:08.030Z,5.3
2022-10-20T01:57:10.106Z,5.3
2022-10-20T01:58:12.097Z,5.3
2022-10-20T01:59:14.161Z,5.3
2022-10-20T02:00:16.122Z,5.3
2022-10-20T02:03:15.173Z,5.2
2022-10-20T02:04:17.121Z,5.1
2022-10-20T02:05:19.194Z,5
2022-10-20T02:06:21.114Z,4.9
2022-10-20T02:07:23.130Z,4.8
2022-10-20T02:08:25.158Z,4.8
2022-10-20T02:09:27.114Z,4.8
2022-10-20T02:10:29.493Z,4.8
2022-10-20T02:11:31.173Z,4.9
2022-10-20T02:12:33.116Z,4.9
2022-10-20T02:13:34.074Z,5
2022-10-20T02:14:36.127Z,5
2022-10-20T02:15:38.133Z,5.1
2022-10-20T02:16:40.038Z,5.1
2022-10-20T02:17:42.037Z,5.1
2022-10-20T02:18:44.101Z,5.1
2022-10-20T02:19:46.113Z,5.2
2022-10-20T02:20:48.113Z,5.2
2022-10-20T02:21:50.138Z,5.2
2022-10-20T02:22:52.213Z,5.2
2022-10-20T02:23:54.095Z,5.2
2022-10-20T02:24:56.093Z,5.2
2022-10-20T02:25:58.155Z,5.2
2022-10-20T02:27:00.087Z,5.2
2022-10-20T02:28:02.146Z,5.2
2022-10-20T02:29:04.113Z,5.2
2022-10-20T02:30:06.179Z,5.2
2022-10-20T02:31:08.162Z,5.2
2022-10-20T02:32:10.147Z,5.2
2022-10-20T02:33:12.114Z,5.2
2022-10-20T02:34:14.113Z,5.2
2022-10-20T02:35:16.094Z,5.2
2022-10-20T02:36:18.174Z,5.2
2022-10-20T02:37:20.100Z,5.2
2022-10-20T02:38:22.075Z,5.2
2022-10-20T02:39:24.135Z,5.2
2022-10-20T02:40:26.094Z,5.1
2022-10-20T02:41:28.194Z,5.1
2022-10-20T02:42:30.253Z,5.1
2022-10-20T02:43:32.185Z,5.1
2022-10-20T02:44:34.115Z,5.1
2022-10-20T02:45:36.125Z,5.1
2022-10-20T02:46:38.143Z,5.1
2022-10-20T02:47:40.237Z,5.1
2022-10-20T02:48:42.115Z,5
2022-10-20T02:49:44.134Z,5
2022-10-20T02:50:46.153Z,5
2022-10-20T02:51:48.173Z,5
2022-10-20T02:52:49.133Z,5
2022-10-20T02:53:50.168Z,5
2022-10-20T02:54:52.113Z,5
2022-10-20T02:55:54.133Z,4.9
2022-10-20T02:56:56.113Z,4.9
2022-10-20T02:57:58.175Z,4.9
2022-10-20T02:59:00.162Z,4.8
2022-10-20T03:00:02.221Z,4.8
2022-10-20T03:01:04.163Z,4.8
2022-10-20T03:02:06.385Z,4.8
2022-10-20T03:03:08.114Z,4.8
2022-10-20T03:04:09.093Z,4.7
2022-10-20T03:05:10.134Z,4.7
2022-10-20T03:06:11.134Z,4.7
2022-10-20T03:07:12.173Z,4.7
2022-10-20T03:08:13.142Z,4.6
2022-10-20T03:09:15.093Z,4.6
2022-10-20T03:10:17.116Z,4.6
2022-10-20T03:11:19.133Z,4.6
2022-10-20T03:12:21.113Z,4.6
2022-10-20T03:13:23.166Z,4.6
2022-10-20T03:14:25.113Z,4.7
2022-10-20T03:15:27.114Z,4.7
2022-10-20T03:16:29.198Z,4.6
2022-10-20T03:17:31.121Z,4.6
2022-10-20T03:18:33.114Z,4.6
2022-10-20T03:19:35.113Z,4.6
2022-10-20T03:20:37.134Z,4.6
2022-10-20T03:21:39.185Z,4.7
2022-10-20T03:22:41.133Z,4.6
2022-10-20T03:23:43.133Z,4.6
2022-10-20T03:24:44.134Z,4.5
2022-10-20T03:25:45.153Z,4.6
2022-10-20T03:26:46.201Z,4.6
2022-10-20T03:27:48.113Z,4.6
2022-10-20T03:28:50.174Z,4.6
2022-10-20T03:29:52.113Z,4.6
2022-10-20T03:30:54.173Z,4.7
2022-10-20T03:31:56.218Z,4.7
2022-10-20T03:32:58.153Z,4.7
2022-10-20T03:34:00.158Z,4.7
2022-10-20T03:35:02.133Z,4.7
2022-10-20T03:36:04.122Z,4.8
2022-10-20T03:37:06.137Z,4.7
2022-10-20T03:38:08.138Z,4.7
2022-10-20T03:39:10.134Z,4.7
2022-10-20T03:40:11.174Z,4.7
2022-10-20T03:41:12.153Z,4.7
2022-10-20T03:42:14.176Z,4.7
2022-10-20T03:43:16.174Z,4.7
2022-10-20T03:44:18.153Z,4.7
2022-10-20T03:45:20.157Z,4.7
2022-10-20T03:46:22.156Z,4.7
2022-10-20T03:47:24.159Z,4.7
2022-10-20T03:48:26.213Z,4.7
2022-10-20T03:49:28.153Z,4.7
2022-10-20T03:50:30.178Z,4.7
2022-10-20T03:51:32.193Z,4.8
2022-10-20T03:52:34.628Z,4.7
2022-10-20T03:53:36.154Z,4.7
2022-10-20T03:54:38.156Z,4.6
2022-10-20T03:55:40.120Z,4.7
2022-10-20T03:56:42.155Z,4.6
2022-10-20T03:57:44.195Z,4.6
2022-10-20T03:58:46.153Z,4.6
2022-10-20T03:59:48.202Z,4.5
2022-10-20T04:00:50.255Z,4.5
2022-10-20T04:01:52.174Z,4.5
2022-10-20T04:02:54.126Z,4.5
2022-10-20T04:03:56.161Z,4.5
2022-10-20T04:04:58.153Z,4.5
2022-10-20T04:06:00.153Z,4.4
2022-10-20T04:07:02.201Z,4.4
2022-10-20T04:08:04.244Z,4.4
2022-10-20T04:09:06.310Z,4.3
2022-10-20T04:10:08.153Z,4.3
2022-10-20T04:11:09.654Z,4.3
2022-10-20T04:12:11.175Z,4.4
2022-10-20T04:13:13.175Z,4.4
2022-10-20T04:14:15.143Z,4.4
2022-10-20T04:15:17.194Z,4.5
2022-10-20T04:16:19.194Z,4.5
2022-10-20T04:17:21.174Z,4.5
2022-10-20T04:18:23.225Z,4.6
2022-10-20T04:19:25.161Z,4.6
2022-10-20T04:20:27.157Z,4.6
2022-10-20T04:21:29.134Z,4.6
2022-10-20T04:22:31.193Z,4.6
2022-10-20T04:23:33.293Z,4.6
2022-10-20T04:24:35.197Z,4.6
2022-10-20T04:25:37.154Z,4.6
2022-10-20T04:26:39.149Z,4.6
2022-10-20T04:27:41.132Z,4.6
2022-10-20T04:28:43.194Z,4.5
2022-10-20T04:29:45.174Z,4.5
2022-10-20T04:30:47.175Z,4.5
2022-10-20T04:31:49.331Z,4.5
2022-10-20T04:32:51.117Z,4.5
2022-10-20T04:33:53.197Z,4.5
2022-10-20T04:34:55.200Z,4.5
2022-10-20T04:35:57.165Z,4.5
2022-10-20T04:36:59.173Z,4.5
2022-10-20T04:38:01.214Z,4.4
2022-10-20T04:39:03.161Z,4.4
2022-10-20T04:40:05.221Z,4.4
2022-10-20T04:41:07.209Z,4.4
2022-10-20T04:42:09.193Z,4.4
2022-10-20T04:43:11.153Z,4.4
2022-10-20T04:44:13.113Z,4.4
2022-10-20T04:45:15.163Z,4.3
2022-10-20T04:46:17.162Z,4.3
2022-10-20T04:47:19.194Z,4.3
2022-10-20T04:48:21.195Z,4.3
2022-10-20T04:49:23.199Z,4.2
2022-10-20T04:50:25.135Z,4.2
2022-10-20T04:51:27.121Z,4.2
2022-10-20T04:52:29.141Z,4.2
2022-10-20T04:53:31.208Z,4.2
2022-10-20T04:54:33.154Z,4.2
2022-10-20T04:55:34.160Z,4.2
2022-10-20T04:56:35.154Z,4.2
2022-10-20T04:57:36.524Z,4.2
2022-10-20T04:58:37.304Z,4.3
2022-10-20T04:59:39.202Z,4.3
2022-10-20T05:00:41.194Z,4.3
2022-10-20T05:01:43.310Z,4.3
2022-10-20T05:02:45.133Z,4.3
2022-10-20T05:03:47.214Z,4.3
2022-10-20T05:04:49.236Z,4.2
2022-10-20T05:05:51.169Z,4.2
2022-10-20T05:06:53.153Z,4.2
2022-10-20T05:07:55.216Z,4.2
2022-10-20T05:08:57.271Z,4.2
2022-10-20T05:09:59.213Z,4.2
2022-10-20T05:11:01.253Z,4.2
2022-10-20T05:12:03.213Z,4.2
2022-10-20T05:13:05.216Z,4.2
2022-10-20T05:14:07.260Z,4.2
2022-10-20T05:15:09.160Z,4.2
2022-10-20T05:16:11.190Z,4.1
2022-10-20T05:17:13.178Z,4.1
2022-10-20T05:18:15.234Z,4.1
2022-10-20T05:19:17.195Z,4.1
2022-10-20T05:20:18.184Z,4.1
2022-10-20T05:21:19.163Z,4.1
2022-10-20T05:22:21.254Z,4.1
2022-10-20T05:23:23.229Z,4.2
2022-10-20T05:24:27.799Z,4.2
2022-10-20T05:25:42.798Z,4.1
2022-10-20T05:26:29.134Z,4.2
2022-10-20T05:27:31.154Z,4.2
2022-10-20T05:28:33.154Z,4.2
2022-10-20T05:29:35.234Z,4.2
2022-10-20T05:30:37.196Z,4.2
2022-10-20T05:31:39.260Z,4.2
2022-10-20T05:32:41.175Z,4.2
2022-10-20T05:33:43.182Z,4.2
2022-10-20T05:34:45.214Z,4.3
2022-10-20T05:35:47.219Z,4.3
2022-10-20T05:36:49.288Z,4.3
2022-10-20T05:37:51.168Z,4.3
2022-10-20T05:38:53.193Z,4.3
2022-10-20T05:39:55.388Z,4.4
2022-10-20T05:40:57.213Z,4.4
2022-10-20T05:41:59.220Z,4.4
2022-10-20T05:43:01.180Z,4.4
2022-10-20T05:44:03.234Z,4.4
2022-10-20T05:45:05.242Z,4.4
2022-10-20T05:46:07.214Z,4.5
2022-10-20T05:47:09.233Z,4.5
2022-10-20T05:48:11.172Z,4.5
2022-10-20T05:49:13.214Z,4.6
2022-10-20T05:50:15.175Z,4.6
2022-10-20T05:51:17.258Z,4.7
2022-10-20T05:52:19.235Z,4.7
2022-10-20T05:53:21.186Z,4.8
2022-10-20T05:54:23.214Z,4.9
2022-10-20T05:55:25.200Z,5
2022-10-20T05:56:27.155Z,5.1
2022-10-20T05:57:29.195Z,5.2
2022-10-20T05:58:31.153Z,5.3
2022-10-20T05:59:33.235Z,5.4
2022-10-20T06:00:35.233Z,5.5
2022-10-20T06:01:37.244Z,5.6
2022-10-20T06:02:39.586Z,5.7
2022-10-20T06:03:41.233Z,5.7
2022-10-20T06:04:43.273Z,5.8
2022-10-20T06:05:45.193Z,5.8
2022-10-20T06:06:47.261Z,5.9
2022-10-20T06:07:49.332Z,5.9
2022-10-20T06:08:51.256Z,6
2022-10-20T06:09:53.177Z,6
2022-10-20T06:10:55.238Z,6
2022-10-20T06:11:57.205Z,6
2022-10-20T06:12:59.255Z,6
2022-10-20T06:14:01.261Z,6
2022-10-20T06:15:03.359Z,6
2022-10-20T06:16:05.217Z,6
2022-10-20T06:17:07.176Z,5.9
2022-10-20T06:18:09.194Z,5.7
2022-10-20T06:19:11.234Z,5.6
2022-10-20T06:20:13.267Z,5.6
2022-10-20T06:21:15.194Z,5.4
2022-10-20T06:22:17.188Z,5.3
2022-10-20T06:23:19.219Z,5.3
2022-10-20T06:24:21.299Z,5.4
2022-10-20T06:25:23.286Z,5.4
2022-10-20T06:26:25.214Z,5.5
2022-10-20T06:27:27.247Z,5.6
2022-10-20T06:28:29.235Z,5.7
2022-10-20T06:29:31.234Z,5.8
2022-10-20T06:30:33.298Z,5.9
2022-10-20T06:31:35.235Z,6
2022-10-20T06:32:37.502Z,6
2022-10-20T06:33:39.201Z,6.1
2022-10-20T06:34:41.255Z,6.2
2022-10-20T06:35:43.335Z,6.4
2022-10-20T06:36:45.215Z,6.4
2022-10-20T06:37:47.282Z,6.4
2022-10-20T06:38:49.382Z,6.3
2022-10-20T06:39:51.234Z,6.3
2022-10-20T06:40:53.254Z,6.4
2022-10-20T06:41:55.224Z,6.3
2022-10-20T06:42:57.262Z,6.3
2022-10-20T06:44:02.042Z,6.2
2022-10-20T06:45:03.355Z,6.2
2022-10-20T06:46:05.220Z,6.1
2022-10-20T06:47:07.270Z,6.1
2022-10-20T06:48:09.234Z,6.1
2022-10-20T06:49:11.240Z,6.1
2022-10-20T06:50:13.233Z,6.1
2022-10-20T06:51:15.258Z,6.1
2022-10-20T06:52:17.244Z,6.1
2022-10-20T06:53:19.277Z,6
2022-10-20T06:54:21.233Z,6
2022-10-20T06:55:23.234Z,6
2022-10-20T06:56:25.275Z,6
2022-10-20T06:57:27.293Z,6
2022-10-20T06:58:29.234Z,6.1
2022-10-20T06:59:31.261Z,6.1
2022-10-20T07:00:33.237Z,6.3
2022-10-20T07:01:35.338Z,6.4
2022-10-20T07:02:37.512Z,6.6
2022-10-20T07:03:39.234Z,6.7
2022-10-20T07:04:41.255Z,6.9
2022-10-20T07:05:43.253Z,6.9
2022-10-20T07:06:45.281Z,6.9
2022-10-20T07:07:47.274Z,6.8
2022-10-20T07:08:49.520Z,6.7
2022-10-20T07:09:51.273Z,6.7
2022-10-20T07:10:53.294Z,6.5
2022-10-20T07:11:55.213Z,6.3
2022-10-20T07:12:57.214Z,6.2
2022-10-20T07:13:59.294Z,6.2
2022-10-20T07:15:01.294Z,6.1
2022-10-20T07:16:03.276Z,6.1
2022-10-20T07:17:05.253Z,6.2
2022-10-20T07:18:07.295Z,6.4
2022-10-20T07:19:09.274Z,6.6
2022-10-20T07:20:11.293Z,6.7
2022-10-20T07:21:13.231Z,6.7
2022-10-20T07:22:15.260Z,6.7
2022-10-20T07:23:17.215Z,6.8
2022-10-20T07:24:19.277Z,7
2022-10-20T07:25:21.239Z,7
2022-10-20T07:26:23.216Z,7.2
2022-10-20T07:27:25.261Z,7.4
2022-10-20T07:28:27.314Z,7.5
2022-10-20T07:29:29.340Z,7.6
2022-10-20T07:30:31.261Z,7.6
2022-10-20T07:31:33.240Z,7.7
2022-10-20T07:32:35.649Z,7.6
2022-10-20T07:33:37.215Z,7.5
2022-10-20T07:34:39.253Z,7.4
2022-10-20T07:35:41.214Z,7.2
2022-10-20T07:36:43.254Z,7.1
2022-10-20T07:37:45.313Z,7
2022-10-20T07:38:47.294Z,7
2022-10-20T07:39:49.521Z,7
2022-10-20T07:40:51.302Z,7.1
2022-10-20T07:41:53.273Z,7.2
2022-10-20T07:42:55.275Z,7.2
2022-10-20T07:43:57.235Z,7.2
2022-10-20T07:44:59.258Z,7.1
2022-10-20T07:46:01.281Z,7
2022-10-20T07:47:03.273Z,6.8
2022-10-20T07:48:05.255Z,6.6
2022-10-20T07:49:25.404Z,6.6
2022-10-20T07:50:09.279Z,6.6
2022-10-20T07:51:11.258Z,6.7
2022-10-20T07:52:13.314Z,6.7
2022-10-20T07:53:15.274Z,6.8
2022-10-20T07:54:17.217Z,6.9
2022-10-20T07:55:36.855Z,7
2022-10-20T07:56:21.246Z,7.2
2022-10-20T07:57:23.301Z,7.3
2022-10-20T07:58:25.296Z,7.5
2022-10-20T07:59:27.256Z,7.6
2022-10-20T08:00:29.290Z,7.7
2022-10-20T08:01:31.357Z,7.9
2022-10-20T08:02:33.289Z,8.1
2022-10-20T08:03:35.199Z,8.2
2022-10-20T08:04:37.275Z,8.3
2022-10-20T08:05:39.274Z,8.4
2022-10-20T08:06:41.254Z,8.5
2022-10-20T08:07:43.333Z,8.6
2022-10-20T08:08:45.319Z,8.6
2022-10-20T08:09:47.284Z,8.5
2022-10-20T08:10:49.481Z,8.7
2022-10-20T08:11:51.453Z,8.7
2022-10-20T08:12:53.235Z,8.7
2022-10-20T08:13:55.313Z,8.8
2022-10-20T08:14:57.273Z,8.9
2022-10-20T08:16:10.101Z,8.9
2022-10-20T08:17:12.235Z,9
2022-10-20T08:18:17.142Z,9
2022-10-20T08:19:24.308Z,9.1
2022-10-20T08:20:27.399Z,9.2
2022-10-20T08:21:34.293Z,9.2
2022-10-20T08:22:36.450Z,9.4
2022-10-20T08:23:38.293Z,9.2
2022-10-20T08:24:40.274Z,9.2
2022-10-20T08:25:42.374Z,9.3
2022-10-20T08:26:44.339Z,9.5
2022-10-20T08:27:46.443Z,9.7
2022-10-20T08:28:48.270Z,9.9
2022-10-20T08:29:54.906Z,10.2
2022-10-20T08:30:52.293Z,10.1
2022-10-20T08:31:54.317Z,9.9
2022-10-20T08:32:56.306Z,9.7
2022-10-20T08:33:58.334Z,9.5
2022-10-20T08:35:00.313Z,9.3
2022-10-20T08:36:02.314Z,8.8
2022-10-20T08:37:04.315Z,8.6
2022-10-20T08:38:06.246Z,8.6
2022-10-20T08:39:08.259Z,8.6
2022-10-20T08:40:10.419Z,8.6
2022-10-20T08:41:12.255Z,8.6
2022-10-20T08:42:14.341Z,8.7
2022-10-20T08:43:16.293Z,8.7
2022-10-20T08:44:18.394Z,8.8
2022-10-20T08:45:20.275Z,8.7
2022-10-20T08:46:22.277Z,8.8
2022-10-20T08:47:24.899Z,8.8
2022-10-20T08:48:26.285Z,9
2022-10-20T08:49:28.314Z,9
2022-10-20T08:50:30.373Z,9.1
2022-10-20T08:51:32.258Z,9.1
2022-10-20T08:52:34.274Z,9.3
2022-10-20T08:53:36.254Z,9.3
2022-10-20T08:54:38.274Z,9.2
2022-10-20T08:55:40.315Z,9.1
2022-10-20T08:56:42.219Z,8.8
2022-10-20T08:57:44.304Z,8.7
2022-10-20T08:58:46.268Z,8.5
2022-10-20T08:59:48.299Z,8.6
2022-10-20T09:00:50.408Z,8.6
2022-10-20T09:01:52.433Z,8.8
2022-10-20T09:02:54.255Z,8.8
2022-10-20T09:03:56.313Z,8.9
2022-10-20T09:04:58.294Z,9
2022-10-20T09:06:00.274Z,9
2022-10-20T09:07:02.337Z,9
2022-10-20T09:08:04.330Z,9.1
2022-10-20T09:09:06.330Z,9.3
2022-10-20T09:10:08.354Z,9.5
2022-10-20T09:11:10.344Z,9.7
2022-10-20T09:12:12.294Z,9.7
2022-10-20T09:13:14.393Z,9.8
2022-10-20T09:14:16.275Z,9.8
2022-10-20T09:15:18.280Z,9.9
2022-10-20T09:16:27.087Z,9.9
2022-10-20T09:17:22.241Z,10.1
2022-10-20T09:18:24.329Z,10.2
2022-10-20T09:19:26.215Z,10.1
2022-10-20T09:20:28.277Z,10
2022-10-20T09:21:30.288Z,9.9
2022-10-20T09:22:35.888Z,9.7
2022-10-20T09:23:40.907Z,9.5
2022-10-20T09:24:36.297Z,9.3
2022-10-20T09:25:38.295Z,9.1
2022-10-20T09:27:00.700Z,9
2022-10-20T09:27:42.255Z,9
2022-10-20T09:29:02.100Z,9
2022-10-20T09:29:46.278Z,9
2022-10-20T09:30:48.258Z,9.1
2022-10-20T09:31:50.293Z,9.3
2022-10-20T09:32:52.334Z,9.4
2022-10-20T09:33:54.321Z,9.4
2022-10-20T09:34:56.297Z,9.4
2022-10-20T09:35:58.294Z,9.3
2022-10-20T09:37:00.335Z,9.2
2022-10-20T09:38:02.397Z,9.3
2022-10-20T09:39:04.335Z,9.4
2022-10-20T09:40:06.414Z,9.5
2022-10-20T09:41:08.306Z,9.5
2022-10-20T09:42:10.322Z,9.7
2022-10-20T09:43:12.306Z,9.8
2022-10-20T09:44:14.303Z,9.9
2022-10-20T09:45:16.356Z,10.1
2022-10-20T09:46:18.336Z,10.3
2022-10-20T09:47:20.364Z,10.5
2022-10-20T09:48:22.315Z,10.6
2022-10-20T09:49:24.378Z,10.7
2022-10-20T09:50:26.415Z,10.7
2022-10-20T09:51:28.338Z,10.7
2022-10-20T09:52:30.377Z,10.6
2022-10-20T09:53:32.334Z,10.7
2022-10-20T09:54:34.343Z,10.7
2022-10-20T09:55:36.399Z,10.8
2022-10-20T09:56:38.314Z,10.8
2022-10-20T09:57:40.295Z,10.9
2022-10-20T09:58:42.295Z,10.8
2022-10-20T09:59:44.391Z,10.9
2022-10-20T10:00:46.407Z,11
2022-10-20T10:01:48.375Z,10.9
2022-10-20T10:02:50.414Z,10.6
2022-10-20T10:03:52.315Z,10.5
2022-10-20T10:04:54.374Z,10.5
2022-10-20T10:05:56.294Z,10.5
2022-10-20T10:06:58.318Z,10.5
2022-10-20T10:08:00.375Z,10.4
2022-10-20T10:09:02.466Z,10.1
2022-10-20T10:10:07.159Z,10
2022-10-20T10:11:06.334Z,10.1
2022-10-20T10:12:08.301Z,10.1
2022-10-20T10:13:10.332Z,10.2
2022-10-20T10:14:12.337Z,10.4
2022-10-20T10:15:14.383Z,10.4
2022-10-20T10:16:16.356Z,10.5
2022-10-20T10:17:18.239Z,10.5
2022-10-20T10:18:20.376Z,10.5
2022-10-20T10:19:22.399Z,10.5
2022-10-20T10:20:24.274Z,10.6
2022-10-20T10:21:26.354Z,10.7
2022-10-20T10:22:28.382Z,10.7
2022-10-20T10:23:30.414Z,10.7
2022-10-20T10:24:32.334Z,10.7
2022-10-20T10:25:34.356Z,10.7
2022-10-20T10:26:36.354Z,10.9
2022-10-20T10:27:38.316Z,11.1
2022-10-20T10:28:40.674Z,11.3
2022-10-20T10:29:42.401Z,11.5
2022-10-20T10:30:45.756Z,11.4
2022-10-20T10:31:46.295Z,11.2
2022-10-20T10:32:48.374Z,11.2
2022-10-20T10:33:50.385Z,11.4
2022-10-20T10:34:52.374Z,11.5
2022-10-20T10:35:54.396Z,11.5
2022-10-20T10:36:56.356Z,11.6
2022-10-20T10:37:58.335Z,11.6
2022-10-20T10:39:00.374Z,11.7
2022-10-20T10:40:02.417Z,11.8
2022-10-20T10:41:04.354Z,11.9
2022-10-20T10:42:06.414Z,11.7
2022-10-20T10:43:08.343Z,11.6
2022-10-20T10:44:10.337Z,11.5
2022-10-20T10:45:12.354Z,11.3
2022-10-20T10:46:14.420Z,11.2
2022-10-20T10:47:16.374Z,11.2
2022-10-20T10:48:18.314Z,11.1
2022-10-20T10:49:20.414Z,10.9
2022-10-20T10:50:22.399Z,10.8
2022-10-20T10:51:24.402Z,10.7
2022-10-20T10:52:26.335Z,10.5
2022-10-20T10:53:28.413Z,10.4
2022-10-20T10:54:30.326Z,10.5
2022-10-20T10:55:48.954Z,10.4
2022-10-20T10:56:34.494Z,10.3
2022-10-20T10:57:36.624Z,10.4
2022-10-20T10:58:38.296Z,10.4
2022-10-20T10:59:40.341Z,10.5
2022-10-20T11:00:42.446Z,10.5
2022-10-20T11:01:44.458Z,10.3
2022-10-20T11:02:46.415Z,10.3
2022-10-20T11:03:48.317Z,10.5
2022-10-20T11:04:50.436Z,10.6
2022-10-20T11:05:52.378Z,10.6
2022-10-20T11:06:55.703Z,10.7
2022-10-20T11:07:56.374Z,10.8
2022-10-20T11:08:58.428Z,10.9
2022-10-20T11:10:00.379Z,10.9
2022-10-20T11:11:02.374Z,11.1
2022-10-20T11:12:04.378Z,11.3
2022-10-20T11:13:06.313Z,11.3
2022-10-20T11:14:08.410Z,11.3
2022-10-20T11:15:10.459Z,11.3
2022-10-20T11:16:12.434Z,11.3
2022-10-20T11:17:14.394Z,11.4
2022-10-20T11:18:16.380Z,11.5
2022-10-20T11:19:18.335Z,11.5
2022-10-20T11:20:20.454Z,11.4
2022-10-20T11:21:22.342Z,11.5
2022-10-20T11:22:24.433Z,11.4
2022-10-20T11:23:26.451Z,11.4
2022-10-20T11:24:28.378Z,11.1
2022-10-20T11:25:30.373Z,11
2022-10-20T11:26:32.335Z,10.8
2022-10-20T11:27:34.589Z,10.6
2022-10-20T11:28:36.397Z,10.7
2022-10-20T11:29:38.571Z,10.8
2022-10-20T11:30:40.318Z,10.9
2022-10-20T11:31:42.395Z,11
2022-10-20T11:32:44.398Z,11.2
2022-10-20T11:33:46.355Z,11.2
2022-10-20T11:34:48.434Z,11.1
2022-10-20T11:35:50.354Z,11.3
2022-10-20T11:36:52.355Z,11.3
2022-10-20T11:37:54.375Z,11.4
2022-10-20T11:38:56.394Z,11.6
2022-10-20T11:39:58.478Z,11.6
2022-10-20T11:41:00.374Z,11.7
2022-10-20T11:42:02.434Z,11.6
2022-10-20T11:43:07.454Z,11.6
2022-10-20T11:44:06.354Z,11.7
2022-10-20T11:45:08.453Z,11.7
2022-10-20T11:46:10.459Z,11.7
2022-10-20T11:47:12.494Z,12
2022-10-20T11:48:14.363Z,12
2022-10-20T11:49:16.375Z,12.1
2022-10-20T11:50:18.425Z,12.1
2022-10-20T11:51:20.455Z,12
2022-10-20T11:52:22.454Z,12
2022-10-20T11:53:24.374Z,11.9
2022-10-20T11:54:26.398Z,11.8
2022-10-20T11:55:28.378Z,11.9
2022-10-20T11:56:30.414Z,12
2022-10-20T11:57:32.514Z,11.9
2022-10-20T11:58:34.416Z,11.9
2022-10-20T11:59:36.395Z,11.8
2022-10-20T12:02:12.446Z,11.9
2022-10-20T12:03:14.416Z,11.7
2022-10-20T12:04:16.440Z,11.7
2022-10-20T12:05:18.416Z,11.4
2022-10-20T12:06:20.416Z,11.3
2022-10-20T12:07:22.393Z,11.4
2022-10-20T12:08:29.763Z,11.5
2022-10-20T12:09:26.402Z,11.7
2022-10-20T12:10:28.396Z,11.8
2022-10-20T12:11:30.353Z,12
2022-10-20T12:12:32.396Z,12.1
2022-10-20T12:13:34.376Z,12.2
2022-10-20T12:14:36.482Z,12.3
2022-10-20T12:15:38.414Z,12.3
2022-10-20T12:16:40.401Z,12.2
2022-10-20T12:17:42.394Z,12.1
2022-10-20T12:18:44.354Z,12
2022-10-20T12:19:46.403Z,12.1
2022-10-20T12:20:48.394Z,11.9
2022-10-20T12:21:50.333Z,11.9
2022-10-20T12:22:52.393Z,12.1
2022-10-20T12:23:54.376Z,12.1
2022-10-20T12:24:56.454Z,12.2
2022-10-20T12:25:58.456Z,12.2
2022-10-20T12:27:00.414Z,12.3
2022-10-20T12:28:02.464Z,12.4
2022-10-20T12:29:04.394Z,12.6
2022-10-20T12:30:06.455Z,12.9
2022-10-20T12:31:08.373Z,13.1
2022-10-20T12:32:10.394Z,13.3
2022-10-20T12:33:12.455Z,13.4
2022-10-20T12:34:14.414Z,13.4
2022-10-20T12:35:16.751Z,13.5
2022-10-20T12:36:18.374Z,13.5
2022-10-20T12:37:20.395Z,13.3
2022-10-20T12:38:22.394Z,13.2
2022-10-20T12:39:24.394Z,13.2
2022-10-20T12:40:26.417Z,13.1
2022-10-20T12:41:28.434Z,13
2022-10-20T12:42:30.376Z,13
2022-10-20T12:43:32.454Z,12.6
2022-10-20T12:44:34.434Z,12.3
2022-10-20T12:45:36.358Z,12.1
2022-10-20T12:46:38.534Z,12.1
2022-10-20T12:47:40.645Z,12.2
2022-10-20T12:48:42.434Z,12.4
2022-10-20T12:49:44.454Z,12.3
2022-10-20T12:50:46.439Z,12.2
2022-10-20T12:51:48.435Z,12.1
2022-10-20T12:52:50.473Z,12
2022-10-20T12:53:52.455Z,12.1
2022-10-20T12:54:54.378Z,12.1
2022-10-20T12:55:56.439Z,11.8
2022-10-20T12:56:58.414Z,11.5
2022-10-20T12:58:00.434Z,11.6
2022-10-20T12:59:02.602Z,11.7
2022-10-20T13:00:04.494Z,11.8
2022-10-20T13:01:06.477Z,12.1
2022-10-20T13:02:08.415Z,12.2
2022-10-20T13:03:13.470Z,12.2
2022-10-20T13:04:12.430Z,12.2
2022-10-20T13:05:14.384Z,12.1
2022-10-20T13:06:16.470Z,12.2
2022-10-20T13:07:18.434Z,12.2
2022-10-20T13:08:20.383Z,12.4
2022-10-20T13:09:22.421Z,12.4
2022-10-20T13:10:24.414Z,12.6
2022-10-20T13:11:26.434Z,12.8
2022-10-20T13:12:28.494Z,12.8
2022-10-20T13:13:30.549Z,12.7
2022-10-20T13:14:32.356Z,12.6
2022-10-20T13:15:33.456Z,12.6
2022-10-20T13:16:35.417Z,12.5
2022-10-20T13:17:37.691Z,12.1
2022-10-20T13:18:39.408Z,12
2022-10-20T13:19:41.459Z,12
2022-10-20T13:20:43.473Z,12.2
2022-10-20T13:21:49.415Z,12.2
2022-10-20T13:22:47.454Z,12.3
2022-10-20T13:23:49.494Z,12.5
2022-10-20T13:24:52.555Z,12.7
2022-10-20T13:25:53.433Z,12.5
2022-10-20T13:26:55.400Z,12.2
2022-10-20T13:27:57.434Z,12.1
2022-10-20T13:28:59.599Z,12.1
2022-10-20T13:30:01.531Z,12.1
2022-10-20T13:31:03.662Z,12.1
2022-10-20T13:32:05.509Z,12.2
2022-10-20T13:34:09.376Z,12.4
2022-10-20T13:35:11.449Z,12.3
2022-10-20T13:36:13.415Z,12.3
2022-10-20T13:37:17.087Z,12.5
2022-10-20T13:38:17.434Z,12.4
2022-10-20T13:39:19.475Z,12.3
2022-10-20T13:40:23.906Z,12.4
2022-10-20T13:41:23.464Z,12.6
2022-10-20T13:42:25.449Z,12.7
2022-10-20T13:43:27.395Z,12.8
2022-10-20T13:44:31.680Z,12.8
2022-10-20T13:45:31.503Z,12.7
2022-10-20T13:46:33.495Z,12.7
2022-10-20T13:47:35.440Z,12.6
2022-10-20T13:48:37.417Z,12.4
2022-10-20T13:49:39.404Z,12.3
2022-10-20T13:50:41.436Z,12.4
2022-10-20T13:51:43.434Z,12.4
2022-10-20T13:52:45.447Z,12.5
2022-10-20T13:53:47.357Z,12.4
2022-10-20T13:54:49.428Z,12.5
2022-10-20T13:55:56.482Z,12.3
2022-10-20T13:56:58.456Z,12.3
2022-10-20T13:58:00.394Z,12.4
2022-10-20T13:59:05.601Z,12.4
2022-10-20T14:00:04.630Z,12.5
2022-10-20T14:01:06.575Z,12.6
2022-10-20T14:02:12.065Z,12.7
2022-10-20T14:03:10.440Z,12.7
2022-10-20T14:04:12.475Z,12.8
2022-10-20T14:05:14.435Z,12.9
2022-10-20T14:06:16.462Z,12.9
2022-10-20T14:07:18.497Z,13
2022-10-20T14:08:23.392Z,13
2022-10-20T14:09:22.444Z,13
2022-10-20T14:10:24.426Z,13
2022-10-20T14:11:26.395Z,13
2022-10-20T14:13:57.463Z,12.8
2022-10-20T14:15:01.868Z,12.9